sensor_id;sensor_type;location;lat;lon;timestamp;P1;durP1;ratioP1;P2;durP2;ratioP2
20294;SDS011;10306;52.128;5.208;2022-07-18T00:02:17;1.97;;;1.87;;
20294;SDS011;10306;52.128;5.208;2022-07-18T00:04:43;1.80;;;1.70;;
20294;SDS011;10306;52.128;5.208;2022-07-18T00:07:09;1.93;;;1.83;;
20294;SDS011;10306;52.128;5.208;2022-07-18T00:09:36;1.73;;;1.63;;
20294;SDS011;10306;52.128;5.208;2022-07-18T00:12:02;1.93;;;1.83;;
20294;SDS011;10306;52.128;5.208;2022-07-18T00:14:28;1.90;;;1.80;;
20294;SDS011;10306;52.128;5.208;2022-07-18T00:16:54;1.97;;;1.87;;
20294;SDS011;10306;52.128;5.208;2022-07-18T00:19:20;1.93;;;1.83;;
20294;SDS011;10306;52.128;5.208;2022-07-18T00:21:46;1.77;;;1.67;;
20294;SDS011;10306;52.128;5.208;2022-07-18T00:24:12;1.67;;;1.60;;
20294;SDS011;10306;52.128;5.208;2022-07-18T00:26:38;2.10;;;2.00;;
20294;SDS011;10306;52.128;5.208;2022-07-18T00:29:04;1.80;;;1.70;;
20294;SDS011;10306;52.128;5.208;2022-07-18T00:31:30;1.97;;;1.87;;
20294;SDS011;10306;52.128;5.208;2022-07-18T00:33:56;2.17;;;2.07;;
20294;SDS011;10306;52.128;5.208;2022-07-18T00:36:22;2.20;;;2.10;;
20294;SDS011;10306;52.128;5.208;2022-07-18T00:38:48;1.97;;;1.87;;
20294;SDS011;10306;52.128;5.208;2022-07-18T00:41:15;1.70;;;1.60;;
20294;SDS011;10306;52.128;5.208;2022-07-18T00:43:41;1.87;;;1.80;;
20294;SDS011;10306;52.128;5.208;2022-07-18T00:46:07;1.83;;;1.73;;
20294;SDS011;10306;52.128;5.208;2022-07-18T00:48:36;1.87;;;1.77;;
20294;SDS011;10306;52.128;5.208;2022-07-18T00:51:02;1.90;;;1.80;;
20294;SDS011;10306;52.128;5.208;2022-07-18T00:53:28;1.67;;;1.57;;
20294;SDS011;10306;52.128;5.208;2022-07-18T00:55:54;2.00;;;1.90;;
20294;SDS011;10306;52.128;5.208;2022-07-18T00:58:20;2.00;;;1.90;;
20294;SDS011;10306;52.128;5.208;2022-07-18T01:00:46;1.90;;;1.80;;
20294;SDS011;10306;52.128;5.208;2022-07-18T01:03:31;1.87;;;1.80;;
20294;SDS011;10306;52.128;5.208;2022-07-18T01:05:57;1.90;;;1.80;;
20294;SDS011;10306;52.128;5.208;2022-07-18T01:08:23;2.20;;;2.10;;
20294;SDS011;10306;52.128;5.208;2022-07-18T01:10:49;2.07;;;1.97;;
20294;SDS011;10306;52.128;5.208;2022-07-18T01:13:16;2.20;;;2.10;;
20294;SDS011;10306;52.128;5.208;2022-07-18T01:15:42;1.50;;;1.47;;
20294;SDS011;10306;52.128;5.208;2022-07-18T01:18:09;2.07;;;1.97;;
20294;SDS011;10306;52.128;5.208;2022-07-18T01:20:34;2.17;;;2.07;;
20294;SDS011;10306;52.128;5.208;2022-07-18T01:23:01;2.13;;;2.03;;
20294;SDS011;10306;52.128;5.208;2022-07-18T01:25:27;1.90;;;1.80;;
20294;SDS011;10306;52.128;5.208;2022-07-18T01:27:53;1.67;;;1.67;;
20294;SDS011;10306;52.128;5.208;2022-07-18T01:30:20;2.10;;;2.00;;
20294;SDS011;10306;52.128;5.208;2022-07-18T01:32:46;1.90;;;1.80;;
20294;SDS011;10306;52.128;5.208;2022-07-18T01:35:21;1.53;;;1.43;;
20294;SDS011;10306;52.128;5.208;2022-07-18T01:37:48;1.70;;;1.60;;
20294;SDS011;10306;52.128;5.208;2022-07-18T01:40:14;1.83;;;1.73;;
20294;SDS011;10306;52.128;5.208;2022-07-18T01:42:40;2.13;;;2.03;;
20294;SDS011;10306;52.128;5.208;2022-07-18T01:45:06;1.60;;;1.60;;
20294;SDS011;10306;52.128;5.208;2022-07-18T01:47:32;1.83;;;1.73;;
20294;SDS011;10306;52.128;5.208;2022-07-18T01:49:58;1.70;;;1.60;;
20294;SDS011;10306;52.128;5.208;2022-07-18T01:52:24;1.77;;;1.73;;
20294;SDS011;10306;52.128;5.208;2022-07-18T01:54:50;1.77;;;1.67;;
20294;SDS011;10306;52.128;5.208;2022-07-18T01:57:16;2.13;;;2.03;;
20294;SDS011;10306;52.128;5.208;2022-07-18T01:59:42;1.93;;;1.83;;
20294;SDS011;10306;52.128;5.208;2022-07-18T02:02:08;1.40;;;1.40;;
20294;SDS011;10306;52.128;5.208;2022-07-18T02:04:34;2.10;;;2.00;;
20294;SDS011;10306;52.128;5.208;2022-07-18T02:07:19;1.70;;;1.60;;
20294;SDS011;10306;52.128;5.208;2022-07-18T02:09:45;1.60;;;1.50;;
20294;SDS011;10306;52.128;5.208;2022-07-18T02:12:11;1.60;;;1.50;;
20294;SDS011;10306;52.128;5.208;2022-07-18T02:14:36;1.73;;;1.63;;
20294;SDS011;10306;52.128;5.208;2022-07-18T02:17:02;2.17;;;2.00;;
20294;SDS011;10306;52.128;5.208;2022-07-18T02:19:28;1.50;;;1.40;;
20294;SDS011;10306;52.128;5.208;2022-07-18T02:21:55;1.83;;;1.73;;
20294;SDS011;10306;52.128;5.208;2022-07-18T02:24:21;1.80;;;1.70;;
20294;SDS011;10306;52.128;5.208;2022-07-18T02:26:46;1.50;;;1.50;;
20294;SDS011;10306;52.128;5.208;2022-07-18T02:29:12;1.63;;;1.53;;
20294;SDS011;10306;52.128;5.208;2022-07-18T02:31:38;1.70;;;1.60;;
20294;SDS011;10306;52.128;5.208;2022-07-18T02:34:04;1.40;;;1.40;;
20294;SDS011;10306;52.128;5.208;2022-07-18T02:36:39;1.97;;;1.87;;
20294;SDS011;10306;52.128;5.208;2022-07-18T02:39:06;1.90;;;1.80;;
20294;SDS011;10306;52.128;5.208;2022-07-18T02:41:33;1.40;;;1.30;;
20294;SDS011;10306;52.128;5.208;2022-07-18T02:43:59;1.73;;;1.63;;
20294;SDS011;10306;52.128;5.208;2022-07-18T02:46:25;1.57;;;1.57;;
20294;SDS011;10306;52.128;5.208;2022-07-18T02:48:51;2.03;;;1.93;;
20294;SDS011;10306;52.128;5.208;2022-07-18T02:51:17;1.73;;;1.63;;
20294;SDS011;10306;52.128;5.208;2022-07-18T02:53:43;2.03;;;1.93;;
20294;SDS011;10306;52.128;5.208;2022-07-18T02:56:09;1.90;;;1.80;;
20294;SDS011;10306;52.128;5.208;2022-07-18T02:58:35;1.60;;;1.50;;
20294;SDS011;10306;52.128;5.208;2022-07-18T03:01:02;1.67;;;1.57;;
20294;SDS011;10306;52.128;5.208;2022-07-18T03:03:29;1.40;;;1.30;;
20294;SDS011;10306;52.128;5.208;2022-07-18T03:05:55;1.70;;;1.60;;
20294;SDS011;10306;52.128;5.208;2022-07-18T03:08:21;1.83;;;1.73;;
20294;SDS011;10306;52.128;5.208;2022-07-18T03:10:47;1.50;;;1.50;;
20294;SDS011;10306;52.128;5.208;2022-07-18T03:13:13;1.67;;;1.63;;
20294;SDS011;10306;52.128;5.208;2022-07-18T03:15:39;2.50;;;2.30;;
20294;SDS011;10306;52.128;5.208;2022-07-18T03:18:05;1.53;;;1.47;;
20294;SDS011;10306;52.128;5.208;2022-07-18T03:20:31;1.80;;;1.70;;
20294;SDS011;10306;52.128;5.208;2022-07-18T03:22:58;1.70;;;1.60;;
20294;SDS011;10306;52.128;5.208;2022-07-18T03:25:24;1.67;;;1.57;;
20294;SDS011;10306;52.128;5.208;2022-07-18T03:27:50;1.30;;;1.30;;
20294;SDS011;10306;52.128;5.208;2022-07-18T03:30:16;1.67;;;1.57;;
20294;SDS011;10306;52.128;5.208;2022-07-18T03:32:42;1.87;;;1.77;;
20294;SDS011;10306;52.128;5.208;2022-07-18T03:35:09;1.83;;;1.73;;
20294;SDS011;10306;52.128;5.208;2022-07-18T03:37:35;1.40;;;1.40;;
20294;SDS011;10306;52.128;5.208;2022-07-18T03:40:01;1.70;;;1.60;;
20294;SDS011;10306;52.128;5.208;2022-07-18T03:42:27;1.40;;;1.40;;
20294;SDS011;10306;52.128;5.208;2022-07-18T03:44:53;1.73;;;1.63;;
20294;SDS011;10306;52.128;5.208;2022-07-18T03:47:19;1.70;;;1.60;;
20294;SDS011;10306;52.128;5.208;2022-07-18T03:49:44;1.90;;;1.80;;
20294;SDS011;10306;52.128;5.208;2022-07-18T03:52:10;1.60;;;1.50;;
20294;SDS011;10306;52.128;5.208;2022-07-18T03:54:36;1.50;;;1.50;;
20294;SDS011;10306;52.128;5.208;2022-07-18T03:57:02;1.33;;;1.33;;
20294;SDS011;10306;52.128;5.208;2022-07-18T03:59:28;1.70;;;1.60;;
20294;SDS011;10306;52.128;5.208;2022-07-18T04:01:54;1.90;;;1.80;;
20294;SDS011;10306;52.128;5.208;2022-07-18T04:04:20;1.47;;;1.47;;
20294;SDS011;10306;52.128;5.208;2022-07-18T04:06:46;1.80;;;1.70;;
20294;SDS011;10306;52.128;5.208;2022-07-18T04:09:12;1.50;;;1.40;;
20294;SDS011;10306;52.128;5.208;2022-07-18T04:11:38;1.30;;;1.30;;
20294;SDS011;10306;52.128;5.208;2022-07-18T04:14:04;1.43;;;1.33;;
20294;SDS011;10306;52.128;5.208;2022-07-18T04:16:30;1.30;;;1.30;;
20294;SDS011;10306;52.128;5.208;2022-07-18T04:18:56;1.70;;;1.60;;
20294;SDS011;10306;52.128;5.208;2022-07-18T04:21:22;1.37;;;1.37;;
20294;SDS011;10306;52.128;5.208;2022-07-18T04:23:48;1.23;;;1.23;;
20294;SDS011;10306;52.128;5.208;2022-07-18T04:26:14;1.30;;;1.30;;
20294;SDS011;10306;52.128;5.208;2022-07-18T04:28:40;1.90;;;1.80;;
20294;SDS011;10306;52.128;5.208;2022-07-18T04:31:06;1.30;;;1.30;;
20294;SDS011;10306;52.128;5.208;2022-07-18T04:33:32;1.70;;;1.70;;
20294;SDS011;10306;52.128;5.208;2022-07-18T04:35:58;1.50;;;1.50;;
20294;SDS011;10306;52.128;5.208;2022-07-18T04:38:24;1.33;;;1.33;;
20294;SDS011;10306;52.128;5.208;2022-07-18T04:40:50;1.70;;;1.60;;
20294;SDS011;10306;52.128;5.208;2022-07-18T04:43:16;1.50;;;1.40;;
20294;SDS011;10306;52.128;5.208;2022-07-18T04:45:42;1.43;;;1.43;;
20294;SDS011;10306;52.128;5.208;2022-07-18T04:48:08;1.30;;;1.30;;
20294;SDS011;10306;52.128;5.208;2022-07-18T04:50:33;1.83;;;1.73;;
20294;SDS011;10306;52.128;5.208;2022-07-18T04:52:59;1.60;;;1.50;;
20294;SDS011;10306;52.128;5.208;2022-07-18T04:55:25;2.40;;;2.20;;
20294;SDS011;10306;52.128;5.208;2022-07-18T04:57:53;1.30;;;1.30;;
20294;SDS011;10306;52.128;5.208;2022-07-18T05:00:19;1.50;;;1.40;;
20294;SDS011;10306;52.128;5.208;2022-07-18T05:02:47;1.37;;;1.33;;
20294;SDS011;10306;52.128;5.208;2022-07-18T05:05:14;1.33;;;1.23;;
20294;SDS011;10306;52.128;5.208;2022-07-18T05:07:41;1.47;;;1.40;;
20294;SDS011;10306;52.128;5.208;2022-07-18T05:10:08;1.50;;;1.40;;
20294;SDS011;10306;52.128;5.208;2022-07-18T05:12:34;1.50;;;1.30;;
20294;SDS011;10306;52.128;5.208;2022-07-18T05:15:00;1.23;;;1.23;;
20294;SDS011;10306;52.128;5.208;2022-07-18T05:17:26;1.50;;;1.40;;
20294;SDS011;10306;52.128;5.208;2022-07-18T05:19:53;1.00;;;1.00;;
20294;SDS011;10306;52.128;5.208;2022-07-18T05:22:19;1.37;;;1.37;;
20294;SDS011;10306;52.128;5.208;2022-07-18T05:24:45;1.20;;;1.20;;
20294;SDS011;10306;52.128;5.208;2022-07-18T05:27:11;1.37;;;1.37;;
20294;SDS011;10306;52.128;5.208;2022-07-18T05:29:37;1.50;;;1.40;;
20294;SDS011;10306;52.128;5.208;2022-07-18T05:32:03;1.20;;;1.20;;
20294;SDS011;10306;52.128;5.208;2022-07-18T05:34:29;1.50;;;1.50;;
20294;SDS011;10306;52.128;5.208;2022-07-18T05:36:55;1.77;;;1.67;;
20294;SDS011;10306;52.128;5.208;2022-07-18T05:39:21;1.17;;;1.17;;
20294;SDS011;10306;52.128;5.208;2022-07-18T05:41:47;1.30;;;1.30;;
20294;SDS011;10306;52.128;5.208;2022-07-18T05:44:12;1.03;;;1.03;;
20294;SDS011;10306;52.128;5.208;2022-07-18T05:46:38;1.30;;;1.30;;
20294;SDS011;10306;52.128;5.208;2022-07-18T05:49:04;1.23;;;1.23;;
20294;SDS011;10306;52.128;5.208;2022-07-18T05:51:30;1.20;;;1.20;;
20294;SDS011;10306;52.128;5.208;2022-07-18T05:53:56;1.50;;;1.40;;
20294;SDS011;10306;52.128;5.208;2022-07-18T05:56:22;1.10;;;1.10;;
20294;SDS011;10306;52.128;5.208;2022-07-18T05:58:48;0.90;;;0.90;;
20294;SDS011;10306;52.128;5.208;2022-07-18T06:01:14;1.13;;;1.10;;
20294;SDS011;10306;52.128;5.208;2022-07-18T06:03:45;1.20;;;1.20;;
20294;SDS011;10306;52.128;5.208;2022-07-18T06:06:11;1.20;;;1.20;;
20294;SDS011;10306;52.128;5.208;2022-07-18T06:08:37;1.20;;;1.20;;
20294;SDS011;10306;52.128;5.208;2022-07-18T06:11:03;0.88;;;0.88;;
20294;SDS011;10306;52.128;5.208;2022-07-18T06:13:31;1.50;;;1.40;;
20294;SDS011;10306;52.128;5.208;2022-07-18T06:15:57;1.47;;;1.37;;
20294;SDS011;10306;52.128;5.208;2022-07-18T06:18:23;1.20;;;1.20;;
20294;SDS011;10306;52.128;5.208;2022-07-18T06:20:49;0.98;;;0.98;;
20294;SDS011;10306;52.128;5.208;2022-07-18T06:23:15;1.02;;;1.00;;
20294;SDS011;10306;52.128;5.208;2022-07-18T06:25:41;0.80;;;0.80;;
20294;SDS011;10306;52.128;5.208;2022-07-18T06:28:07;0.80;;;0.80;;
20294;SDS011;10306;52.128;5.208;2022-07-18T06:30:33;0.80;;;0.80;;
20294;SDS011;10306;52.128;5.208;2022-07-18T06:32:59;0.88;;;0.88;;
20294;SDS011;10306;52.128;5.208;2022-07-18T06:35:28;1.08;;;0.98;;
20294;SDS011;10306;52.128;5.208;2022-07-18T06:37:54;1.02;;;1.02;;
20294;SDS011;10306;52.128;5.208;2022-07-18T06:40:20;0.90;;;0.90;;
20294;SDS011;10306;52.128;5.208;2022-07-18T06:42:50;0.82;;;0.82;;
20294;SDS011;10306;52.128;5.208;2022-07-18T06:45:15;0.90;;;0.90;;
20294;SDS011;10306;52.128;5.208;2022-07-18T06:47:41;0.80;;;0.80;;
20294;SDS011;10306;52.128;5.208;2022-07-18T06:50:08;0.90;;;0.90;;
20294;SDS011;10306;52.128;5.208;2022-07-18T06:52:34;0.70;;;0.70;;
20294;SDS011;10306;52.128;5.208;2022-07-18T06:55:00;0.73;;;0.73;;
20294;SDS011;10306;52.128;5.208;2022-07-18T06:57:26;1.95;;;0.80;;
20294;SDS011;10306;52.128;5.208;2022-07-18T06:59:52;0.88;;;0.88;;
20294;SDS011;10306;52.128;5.208;2022-07-18T07:02:19;0.88;;;0.88;;
20294;SDS011;10306;52.128;5.208;2022-07-18T07:04:45;0.73;;;0.73;;
20294;SDS011;10306;52.128;5.208;2022-07-18T07:07:11;0.70;;;0.70;;
20294;SDS011;10306;52.128;5.208;2022-07-18T07:09:36;1.10;;;1.10;;
20294;SDS011;10306;52.128;5.208;2022-07-18T07:12:02;0.95;;;0.95;;
20294;SDS011;10306;52.128;5.208;2022-07-18T07:14:28;0.75;;;0.75;;
20294;SDS011;10306;52.128;5.208;2022-07-18T07:16:54;0.75;;;0.75;;
20294;SDS011;10306;52.128;5.208;2022-07-18T07:19:20;0.90;;;0.90;;
20294;SDS011;10306;52.128;5.208;2022-07-18T07:21:46;0.63;;;0.63;;
20294;SDS011;10306;52.128;5.208;2022-07-18T07:24:12;1.33;;;0.90;;
20294;SDS011;10306;52.128;5.208;2022-07-18T07:26:38;0.70;;;0.70;;
20294;SDS011;10306;52.128;5.208;2022-07-18T07:29:04;0.82;;;0.82;;
20294;SDS011;10306;52.128;5.208;2022-07-18T07:31:30;0.90;;;0.90;;
20294;SDS011;10306;52.128;5.208;2022-07-18T07:33:56;1.33;;;1.33;;
20294;SDS011;10306;52.128;5.208;2022-07-18T07:36:22;0.77;;;0.77;;
20294;SDS011;10306;52.128;5.208;2022-07-18T07:38:48;0.50;;;0.50;;
20294;SDS011;10306;52.128;5.208;2022-07-18T07:41:14;0.80;;;0.80;;
20294;SDS011;10306;52.128;5.208;2022-07-18T07:43:40;0.90;;;0.90;;
20294;SDS011;10306;52.128;5.208;2022-07-18T07:46:06;1.08;;;1.08;;
20294;SDS011;10306;52.128;5.208;2022-07-18T07:48:32;0.95;;;0.93;;
20294;SDS011;10306;52.128;5.208;2022-07-18T07:50:58;1.20;;;1.13;;
20294;SDS011;10306;52.128;5.208;2022-07-18T07:53:25;1.00;;;1.00;;
20294;SDS011;10306;52.128;5.208;2022-07-18T07:55:50;0.90;;;0.90;;
20294;SDS011;10306;52.128;5.208;2022-07-18T07:58:16;0.77;;;0.77;;
20294;SDS011;10306;52.128;5.208;2022-07-18T08:00:42;0.80;;;0.80;;
20294;SDS011;10306;52.128;5.208;2022-07-18T08:03:08;0.85;;;0.85;;
20294;SDS011;10306;52.128;5.208;2022-07-18T08:05:36;0.95;;;0.82;;
20294;SDS011;10306;52.128;5.208;2022-07-18T08:08:03;0.73;;;0.73;;
20294;SDS011;10306;52.128;5.208;2022-07-18T08:10:29;1.02;;;1.02;;
20294;SDS011;10306;52.128;5.208;2022-07-18T08:12:55;0.70;;;0.70;;
20294;SDS011;10306;52.128;5.208;2022-07-18T08:15:21;0.85;;;0.85;;
20294;SDS011;10306;52.128;5.208;2022-07-18T08:17:48;1.17;;;0.80;;
20294;SDS011;10306;52.128;5.208;2022-07-18T08:20:14;1.02;;;1.02;;
20294;SDS011;10306;52.128;5.208;2022-07-18T08:25:22;0.65;;;0.65;;
20294;SDS011;10306;52.128;5.208;2022-07-18T08:27:48;1.00;;;1.00;;
20294;SDS011;10306;52.128;5.208;2022-07-18T08:30:15;0.75;;;0.75;;
20294;SDS011;10306;52.128;5.208;2022-07-18T08:32:41;0.90;;;0.90;;
20294;SDS011;10306;52.128;5.208;2022-07-18T08:35:07;0.80;;;0.80;;
20294;SDS011;10306;52.128;5.208;2022-07-18T08:37:33;1.00;;;1.00;;
20294;SDS011;10306;52.128;5.208;2022-07-18T08:39:59;0.90;;;0.90;;
20294;SDS011;10306;52.128;5.208;2022-07-18T08:42:25;1.13;;;1.10;;
20294;SDS011;10306;52.128;5.208;2022-07-18T08:44:55;1.17;;;1.17;;
20294;SDS011;10306;52.128;5.208;2022-07-18T08:47:22;0.80;;;0.80;;
20294;SDS011;10306;52.128;5.208;2022-07-18T08:49:51;1.02;;;0.90;;
20294;SDS011;10306;52.128;5.208;2022-07-18T08:52:17;1.10;;;1.10;;
20294;SDS011;10306;52.128;5.208;2022-07-18T08:54:45;0.90;;;0.90;;
20294;SDS011;10306;52.128;5.208;2022-07-18T08:57:13;0.90;;;0.90;;
20294;SDS011;10306;52.128;5.208;2022-07-18T08:59:39;1.00;;;1.00;;
20294;SDS011;10306;52.128;5.208;2022-07-18T09:02:06;1.38;;;1.30;;
20294;SDS011;10306;52.128;5.208;2022-07-18T09:04:35;1.13;;;1.13;;
20294;SDS011;10306;52.128;5.208;2022-07-18T09:07:02;1.00;;;1.00;;
20294;SDS011;10306;52.128;5.208;2022-07-18T09:09:28;0.90;;;0.90;;
20294;SDS011;10306;52.128;5.208;2022-07-18T09:12:05;0.95;;;0.95;;
20294;SDS011;10306;52.128;5.208;2022-07-18T09:17:08;1.00;;;1.00;;
20294;SDS011;10306;52.128;5.208;2022-07-18T09:19:34;1.20;;;1.10;;
20294;SDS011;10306;52.128;5.208;2022-07-18T09:22:14;1.02;;;1.02;;
20294;SDS011;10306;52.128;5.208;2022-07-18T09:27:26;1.75;;;1.25;;
20294;SDS011;10306;52.128;5.208;2022-07-18T09:32:37;1.02;;;1.02;;
20294;SDS011;10306;52.128;5.208;2022-07-18T09:35:04;1.10;;;1.10;;
20294;SDS011;10306;52.128;5.208;2022-07-18T09:37:30;1.08;;;1.05;;
20294;SDS011;10306;52.128;5.208;2022-07-18T09:42:41;0.90;;;0.90;;
20294;SDS011;10306;52.128;5.208;2022-07-18T09:45:07;1.50;;;1.20;;
20294;SDS011;10306;52.128;5.208;2022-07-18T09:47:47;1.02;;;0.95;;
20294;SDS011;10306;52.128;5.208;2022-07-18T09:50:18;0.90;;;0.90;;
20294;SDS011;10306;52.128;5.208;2022-07-18T09:52:45;0.80;;;0.80;;
20294;SDS011;10306;52.128;5.208;2022-07-18T09:55:20;0.85;;;0.85;;
20294;SDS011;10306;52.128;5.208;2022-07-18T09:57:46;1.15;;;1.15;;
20294;SDS011;10306;52.128;5.208;2022-07-18T10:00:22;1.00;;;1.00;;
20294;SDS011;10306;52.128;5.208;2022-07-18T10:02:47;1.20;;;1.20;;
20294;SDS011;10306;52.128;5.208;2022-07-18T10:05:13;0.88;;;0.88;;
20294;SDS011;10306;52.128;5.208;2022-07-18T10:07:39;1.00;;;1.00;;
20294;SDS011;10306;52.128;5.208;2022-07-18T10:10:06;1.00;;;1.00;;
20294;SDS011;10306;52.128;5.208;2022-07-18T10:12:32;0.90;;;0.90;;
20294;SDS011;10306;52.128;5.208;2022-07-18T10:14:58;1.10;;;1.00;;
20294;SDS011;10306;52.128;5.208;2022-07-18T10:17:24;0.80;;;0.80;;
20294;SDS011;10306;52.128;5.208;2022-07-18T10:19:50;1.00;;;1.00;;
20294;SDS011;10306;52.128;5.208;2022-07-18T10:22:16;1.23;;;1.10;;
20294;SDS011;10306;52.128;5.208;2022-07-18T10:24:43;1.15;;;1.15;;
20294;SDS011;10306;52.128;5.208;2022-07-18T10:29:38;0.80;;;0.80;;
20294;SDS011;10306;52.128;5.208;2022-07-18T10:32:04;0.77;;;0.77;;
20294;SDS011;10306;52.128;5.208;2022-07-18T10:34:33;1.85;;;0.95;;
20294;SDS011;10306;52.128;5.208;2022-07-18T10:39:41;0.80;;;0.80;;
20294;SDS011;10306;52.128;5.208;2022-07-18T10:42:12;0.68;;;0.68;;
20294;SDS011;10306;52.128;5.208;2022-07-18T10:44:38;0.80;;;0.80;;
20294;SDS011;10306;52.128;5.208;2022-07-18T10:57:28;1.30;;;1.30;;
20294;SDS011;10306;52.128;5.208;2022-07-18T11:00:02;0.85;;;0.85;;
20294;SDS011;10306;52.128;5.208;2022-07-18T11:02:33;0.90;;;0.90;;
20294;SDS011;10306;52.128;5.208;2022-07-18T11:04:59;1.02;;;0.93;;
20294;SDS011;10306;52.128;5.208;2022-07-18T11:07:26;0.98;;;0.98;;
20294;SDS011;10306;52.128;5.208;2022-07-18T11:09:52;0.90;;;0.90;;
20294;SDS011;10306;52.128;5.208;2022-07-18T11:12:19;1.15;;;1.15;;
20294;SDS011;10306;52.128;5.208;2022-07-18T11:20:40;1.10;;;1.10;;
20294;SDS011;10306;52.128;5.208;2022-07-18T11:23:23;1.10;;;1.10;;
20294;SDS011;10306;52.128;5.208;2022-07-18T11:25:50;1.20;;;1.20;;
20294;SDS011;10306;52.128;5.208;2022-07-18T11:28:16;1.05;;;1.00;;
20294;SDS011;10306;52.128;5.208;2022-07-18T11:30:43;1.08;;;1.05;;
20294;SDS011;10306;52.128;5.208;2022-07-18T11:33:20;1.08;;;1.08;;
20294;SDS011;10306;52.128;5.208;2022-07-18T11:35:47;1.48;;;1.38;;
20294;SDS011;10306;52.128;5.208;2022-07-18T11:38:13;1.25;;;1.25;;
20294;SDS011;10306;52.128;5.208;2022-07-18T11:40:48;1.08;;;1.08;;
20294;SDS011;10306;52.128;5.208;2022-07-18T11:43:24;1.67;;;1.60;;
20294;SDS011;10306;52.128;5.208;2022-07-18T11:46:03;1.30;;;1.27;;
20294;SDS011;10306;52.128;5.208;2022-07-18T11:48:32;1.20;;;1.20;;
20294;SDS011;10306;52.128;5.208;2022-07-18T11:50:58;1.00;;;1.00;;
20294;SDS011;10306;52.128;5.208;2022-07-18T11:53:24;1.20;;;1.20;;
20294;SDS011;10306;52.128;5.208;2022-07-18T11:55:51;1.20;;;1.20;;
20294;SDS011;10306;52.128;5.208;2022-07-18T11:58:18;1.40;;;1.40;;
20294;SDS011;10306;52.128;5.208;2022-07-18T12:00:44;1.30;;;1.30;;
20294;SDS011;10306;52.128;5.208;2022-07-18T12:03:17;1.40;;;1.30;;
20294;SDS011;10306;52.128;5.208;2022-07-18T12:05:45;0.98;;;0.98;;
20294;SDS011;10306;52.128;5.208;2022-07-18T12:11:12;1.20;;;1.20;;
20294;SDS011;10306;52.128;5.208;2022-07-18T12:13:40;1.33;;;1.33;;
20294;SDS011;10306;52.128;5.208;2022-07-18T12:16:06;1.10;;;1.10;;
20294;SDS011;10306;52.128;5.208;2022-07-18T12:18:31;1.27;;;1.27;;
20294;SDS011;10306;52.128;5.208;2022-07-18T12:21:10;1.17;;;1.17;;
20294;SDS011;10306;52.128;5.208;2022-07-18T12:23:36;1.30;;;1.30;;
20294;SDS011;10306;52.128;5.208;2022-07-18T12:26:02;1.42;;;1.38;;
20294;SDS011;10306;52.128;5.208;2022-07-18T12:28:28;1.83;;;1.73;;
20294;SDS011;10306;52.128;5.208;2022-07-18T12:30:54;1.30;;;1.30;;
20294;SDS011;10306;52.128;5.208;2022-07-18T12:33:20;1.20;;;1.20;;
20294;SDS011;10306;52.128;5.208;2022-07-18T12:35:54;1.30;;;1.30;;
20294;SDS011;10306;52.128;5.208;2022-07-18T12:38:20;1.05;;;1.05;;
20294;SDS011;10306;52.128;5.208;2022-07-18T12:45:47;1.08;;;1.08;;
20294;SDS011;10306;52.128;5.208;2022-07-18T12:48:13;1.00;;;1.00;;
20294;SDS011;10306;52.128;5.208;2022-07-18T12:50:40;1.20;;;1.20;;
20294;SDS011;10306;52.128;5.208;2022-07-18T12:53:06;0.98;;;0.98;;
20294;SDS011;10306;52.128;5.208;2022-07-18T12:55:33;2.97;;;1.27;;
20294;SDS011;10306;52.128;5.208;2022-07-18T12:57:59;1.00;;;1.00;;
20294;SDS011;10306;52.128;5.208;2022-07-18T13:00:26;1.10;;;1.10;;
20294;SDS011;10306;52.128;5.208;2022-07-18T13:02:52;1.20;;;1.20;;
20294;SDS011;10306;52.128;5.208;2022-07-18T13:05:20;1.00;;;1.00;;
20294;SDS011;10306;52.128;5.208;2022-07-18T13:07:46;1.25;;;1.25;;
20294;SDS011;10306;52.128;5.208;2022-07-18T13:10:12;1.02;;;1.02;;
20294;SDS011;10306;52.128;5.208;2022-07-18T13:12:38;1.27;;;1.10;;
20294;SDS011;10306;52.128;5.208;2022-07-18T13:15:04;1.60;;;1.02;;
20294;SDS011;10306;52.128;5.208;2022-07-18T13:17:30;1.13;;;1.13;;
20294;SDS011;10306;52.128;5.208;2022-07-18T13:19:56;1.00;;;1.00;;
20294;SDS011;10306;52.128;5.208;2022-07-18T13:22:22;1.10;;;1.10;;
20294;SDS011;10306;52.128;5.208;2022-07-18T13:24:48;1.23;;;1.23;;
20294;SDS011;10306;52.128;5.208;2022-07-18T13:27:14;1.38;;;1.10;;
20294;SDS011;10306;52.128;5.208;2022-07-18T13:29:40;1.20;;;1.20;;
20294;SDS011;10306;52.128;5.208;2022-07-18T13:32:06;1.15;;;1.15;;
20294;SDS011;10306;52.128;5.208;2022-07-18T13:34:34;1.10;;;1.10;;
20294;SDS011;10306;52.128;5.208;2022-07-18T13:37:00;1.00;;;1.00;;
20294;SDS011;10306;52.128;5.208;2022-07-18T13:39:25;1.00;;;1.00;;
20294;SDS011;10306;52.128;5.208;2022-07-18T13:41:51;1.20;;;1.20;;
20294;SDS011;10306;52.128;5.208;2022-07-18T13:44:17;1.05;;;1.05;;
20294;SDS011;10306;52.128;5.208;2022-07-18T13:46:43;1.20;;;1.20;;
20294;SDS011;10306;52.128;5.208;2022-07-18T13:49:10;1.10;;;1.10;;
20294;SDS011;10306;52.128;5.208;2022-07-18T13:51:36;0.90;;;0.90;;
20294;SDS011;10306;52.128;5.208;2022-07-18T13:54:03;1.30;;;1.30;;
20294;SDS011;10306;52.128;5.208;2022-07-18T13:56:29;1.27;;;1.27;;
20294;SDS011;10306;52.128;5.208;2022-07-18T13:58:55;0.90;;;0.90;;
20294;SDS011;10306;52.128;5.208;2022-07-18T14:01:21;1.05;;;1.05;;
20294;SDS011;10306;52.128;5.208;2022-07-18T14:03:47;1.02;;;1.02;;
20294;SDS011;10306;52.128;5.208;2022-07-18T14:06:13;0.80;;;0.80;;
20294;SDS011;10306;52.128;5.208;2022-07-18T14:08:39;1.00;;;1.00;;
20294;SDS011;10306;52.128;5.208;2022-07-18T14:11:05;1.27;;;1.27;;
20294;SDS011;10306;52.128;5.208;2022-07-18T14:13:31;1.10;;;1.10;;
20294;SDS011;10306;52.128;5.208;2022-07-18T14:15:57;1.15;;;1.15;;
20294;SDS011;10306;52.128;5.208;2022-07-18T14:18:23;1.00;;;1.00;;
20294;SDS011;10306;52.128;5.208;2022-07-18T14:20:49;1.05;;;1.05;;
20294;SDS011;10306;52.128;5.208;2022-07-18T14:23:15;1.27;;;1.27;;
20294;SDS011;10306;52.128;5.208;2022-07-18T14:25:41;1.05;;;1.05;;
20294;SDS011;10306;52.128;5.208;2022-07-18T14:28:07;0.93;;;0.93;;
20294;SDS011;10306;52.128;5.208;2022-07-18T14:30:33;1.00;;;1.00;;
20294;SDS011;10306;52.128;5.208;2022-07-18T14:32:59;1.20;;;1.10;;
20294;SDS011;10306;52.128;5.208;2022-07-18T14:35:25;1.00;;;1.00;;
20294;SDS011;10306;52.128;5.208;2022-07-18T14:37:51;1.15;;;1.15;;
20294;SDS011;10306;52.128;5.208;2022-07-18T14:40:17;0.98;;;0.98;;
20294;SDS011;10306;52.128;5.208;2022-07-18T14:42:43;0.90;;;0.90;;
20294;SDS011;10306;52.128;5.208;2022-07-18T14:45:09;1.02;;;1.02;;
20294;SDS011;10306;52.128;5.208;2022-07-18T14:47:35;1.30;;;1.30;;
20294;SDS011;10306;52.128;5.208;2022-07-18T14:50:04;1.33;;;1.33;;
20294;SDS011;10306;52.128;5.208;2022-07-18T14:52:31;1.30;;;1.30;;
20294;SDS011;10306;52.128;5.208;2022-07-18T14:54:57;1.30;;;1.30;;
20294;SDS011;10306;52.128;5.208;2022-07-18T14:57:23;1.30;;;1.30;;
20294;SDS011;10306;52.128;5.208;2022-07-18T14:59:49;1.08;;;1.08;;
20294;SDS011;10306;52.128;5.208;2022-07-18T15:02:15;1.05;;;1.05;;
20294;SDS011;10306;52.128;5.208;2022-07-18T15:04:41;1.10;;;1.10;;
20294;SDS011;10306;52.128;5.208;2022-07-18T15:07:07;1.00;;;1.00;;
20294;SDS011;10306;52.128;5.208;2022-07-18T15:09:33;1.20;;;1.20;;
20294;SDS011;10306;52.128;5.208;2022-07-18T15:11:59;1.00;;;1.00;;
20294;SDS011;10306;52.128;5.208;2022-07-18T15:14:25;1.10;;;1.10;;
20294;SDS011;10306;52.128;5.208;2022-07-18T15:16:52;0.93;;;0.93;;
20294;SDS011;10306;52.128;5.208;2022-07-18T15:19:18;1.10;;;1.10;;
20294;SDS011;10306;52.128;5.208;2022-07-18T15:21:44;0.90;;;0.90;;
20294;SDS011;10306;52.128;5.208;2022-07-18T15:24:10;1.00;;;1.00;;
20294;SDS011;10306;52.128;5.208;2022-07-18T15:26:35;0.90;;;0.90;;
20294;SDS011;10306;52.128;5.208;2022-07-18T15:29:01;1.20;;;1.20;;